Airfield :
LOGIN :

Register | Disclaimer

   EN    FR    IT 

 










Legend :    VFR   Marginal VFR   IFR   Intensive IFR   Very Intensive IFR
Visi :
Ceiling :
>= 8 km
>= 3000ft
5 to 8 km
1000 to 3000 ft
1500m to 5 km
500 to 1000 ft
800 to 1500m
200 to 500 ft
< 800m
< 200 ft
Symbols :   Thunderstorms  Fog  Heavy snow  Heavy precipitations  Wind > 20 kt
SIGMETs :     Misc.  Thunderstorms  Icing  Turbulence  Mountain Waves  Volcanic Ashes







- Airport Elevation : 935 ft


EBFS - Florennes

CURRENT METAR :
  • 281625Z AUTO 23010KT 9999 SCT047/// BKN075/// BKN090/// 20/10 Q1015 BLU

EXPIRED METARs :
  • 281555Z AUTO 22010KT 9999 FEW045/// BKN095/// 20/10 Q1014 BLU
  • 281525Z AUTO 23013KT 9999 FEW045/// BKN055/// BKN090/// 20/10 Q1014 BLU
  • 281455Z AUTO 23015KT 9999 SCT045/// BKN060/// 21/10 Q1014 BLU
  • 281425Z AUTO 23015KT 9999 FEW044/// BKN050/// 21/11 Q1014 BLU
  • 281355Z AUTO 21015KT 9999 SCT043/// BKN055/// BKN075/// 20/10 Q1014 BLU

TAF TAF EBFS
Valid from the 28 at 10:00 until the 28 at 19:00 UTC


280841Z 2810/2819 24010G20KT 9999 SCT030 BKN100
No reported NOTAMs for that airfield.



MET'MAP, your aeronautical weather chart ! - Copyright ORBIFLY December 2007 - Disclaimer

ORBIFLY MET'MAP TEAM :

Programming & Development : Alexandra Zaïnal
Concept & Development : Baudouin d'Aumeries
Co-Development & Prog : Marc-Olivier Méhu
Technical & hardware support : Manuel Goepfert

Contact : metmap@orbifly.com




SOURCES & CREDITS :

   NOAA